Terminal Aerodrome Forecast
Issued by NWS

Home | Current Version | Previous Version | Text Only | Print | Product List | Glossary On
Versions: 1 2 3 4 5 6 7 8 9 10 11 12 13 14 15 16 17 18 19 20 21 22 23 24 25 26 27 28 29 30 31
000
FTUS41 KOKX 202340
TAFSWF
TAF
KSWF 202340Z 2100/2206 13005KT 6SM BR OVC020
     FM210200 12003KT 1SM -RA BR OVC005
     FM210600 VRB02KT 1SM BR OVC005
      TEMPO 2108/2112 1/2SM FG OVC003
     FM211400 27005KT 5SM BR SCT005 BKN012
     FM211800 26005KT P6SM SCT025
     FM220000 25003KT 4SM BR OVC020
      TEMPO 2203/2206 23003KT 1/2SM FG OVC005
      AMD NOT SKED=

USA.gov is the U.S. government's official web portal to all federal, state and local government web resources and services.